Time;durP1;ratioP1;P1;durP2;ratioP2;P2;SDS_P1;SDS_P2;PMS_P1;PMS_P2;Temp;Humidity;BMP_temperature;BMP_pressure;BME280_temperature;BME280_humidity;BME280_pressure;Samples;Min_cycle;Max_cycle;Signal;HPM_P1;HPM_P2
2022/02/04 00:03:35;;;;;;;45.35;29.15;;;;;;;-0.90;100.00;100524.32;1714074;82;21100;-78
2022/02/04 00:20:34;;;;;;;47.20;27.65;;;;;;;-0.94;100.00;100527.01;1712536;82;21067;-77
2022/02/04 00:23:10;;;;;;;50.17;29.65;;;;;;;-0.96;100.00;100526.61;1709079;82;21077;-78
2022/02/04 00:28:16;;;;;;;48.05;29.87;;;;;;;-1.00;100.00;100525.45;1695229;83;21011;-77
2022/02/04 00:30:40;;;;;;;47.38;28.90;;;;;;;-1.00;100.00;100505.83;1681347;83;21359;-77
2022/02/04 00:33:06;;;;;;;44.53;26.87;;;;;;;-1.01;100.00;100515.69;1681741;83;21046;-77
2022/02/04 00:38:22;;;;;;;41.73;23.47;;;;;;;-1.05;100.00;100503.03;1681983;85;21153;-77
2022/02/04 00:40:42;;;;;;;37.50;22.48;;;;;;;-1.08;100.00;100514.61;1682525;84;20975;-77
2022/02/04 00:43:11;;;;;;;29.35;19.30;;;;;;;-1.13;100.00;100505.80;1660001;84;21135;-77
2022/02/04 00:48:26;;;;;;;35.75;23.55;;;;;;;-1.17;100.00;100521.66;1701326;83;21019;-76
2022/02/04 00:50:51;;;;;;;34.92;23.22;;;;;;;-1.19;100.00;100513.64;1698979;83;21259;-77
2022/02/04 00:53:15;;;;;;;33.38;20.23;;;;;;;-1.20;100.00;100503.84;1699923;83;21086;-77
2022/02/04 00:56:04;;;;;;;34.63;22.02;;;;;;;-1.21;100.00;100519.23;1700867;83;21094;-78
2022/02/04 01:28:14;;;;;;;34.92;21.27;;;;;;;-1.31;100.00;100535.26;1719330;81;21582;-77
2022/02/04 01:30:43;;;;;;;35.40;23.15;;;;;;;-1.37;100.00;100532.42;1705664;82;21117;-76
2022/02/04 01:33:12;;;;;;;37.63;24.15;;;;;;;-1.39;100.00;100530.80;1719016;82;20998;-78
2022/02/04 01:35:39;;;;;;;33.95;22.93;;;;;;;-1.41;100.00;100538.51;1703307;83;21534;-77
2022/02/04 01:38:09;;;;;;;31.68;20.62;;;;;;;-1.42;100.00;100547.05;1720227;82;21606;-76
2022/02/04 01:40:36;;;;;;;36.38;23.10;;;;;;;-1.46;100.00;100545.44;1719172;82;21040;-76
2022/02/04 01:43:04;;;;;;;33.98;22.50;;;;;;;-1.46;100.00;100547.98;1699502;83;21045;-76
2022/02/04 01:45:32;;;;;;;35.58;22.95;;;;;;;-1.48;100.00;100550.59;1724542;82;20998;-77
2022/02/04 01:47:59;;;;;;;34.48;21.85;;;;;;;-1.49;100.00;100557.03;1732131;82;21552;-77
2022/02/04 01:50:30;;;;;;;31.15;20.75;;;;;;;-1.51;100.00;100549.83;1741551;82;21051;-77
2022/02/04 01:53:00;;;;;;;32.03;21.62;;;;;;;-1.51;100.00;100548.11;1741020;81;26949;-80
2022/02/04 01:55:28;;;;;;;35.60;23.52;;;;;;;-1.51;100.00;100551.11;1744338;81;21163;-76
2022/02/04 01:57:55;;;;;;;35.48;23.40;;;;;;;-1.51;100.00;100544.73;1738008;82;21077;-76
2022/02/04 02:00:23;;;;;;;36.80;22.70;;;;;;;-1.51;100.00;100549.83;1740705;82;21042;-78
2022/02/04 02:02:51;;;;;;;39.88;24.50;;;;;;;-1.53;100.00;100554.99;1737997;82;21046;-76
2022/02/04 02:05:18;;;;;;;38.85;24.12;;;;;;;-1.56;100.00;100561.45;1706920;84;21083;-78
2022/02/04 02:07:47;;;;;;;34.67;20.95;;;;;;;-1.58;100.00;100546.59;1704464;84;21556;-77
2022/02/04 02:10:19;;;;;;;36.77;23.60;;;;;;;-1.60;100.00;100551.75;1720381;82;21080;-77
2022/02/04 02:37:56;;;;;;;40.65;24.15;;;;;;;-1.87;100.00;100564.77;1697620;83;21058;-78
2022/02/04 02:47:50;;;;;;;23.62;14.13;;;;;;;-1.96;100.00;100573.46;1722922;83;21162;-78
2022/02/04 02:58:23;;;;;;;35.58;21.02;;;;;;;-2.02;100.00;100568.96;1744554;80;21006;-78
2022/02/04 03:01:04;;;;;;;35.33;19.05;;;;;;;-2.03;100.00;100573.21;1734173;82;21141;-79
2022/02/04 03:03:30;;;;;;;42.38;24.70;;;;;;;-2.02;100.00;100567.69;1737621;82;21564;-78
2022/02/04 03:05:56;;;;;;;48.90;28.05;;;;;;;-2.03;100.00;100566.83;1733450;82;21018;-78
2022/02/04 03:08:25;;;;;;;44.05;25.88;;;;;;;-2.02;100.00;100575.34;1742781;82;21524;-78
2022/02/04 03:10:56;;;;;;;44.00;26.13;;;;;;;-2.02;100.00;100581.27;1738577;82;21568;-79
2022/02/04 03:13:26;;;;;;;39.70;23.25;;;;;;;-2.02;100.00;100574.89;1710040;82;21156;-78
2022/02/04 03:16:00;;;;;;;39.78;24.23;;;;;;;-2.03;100.00;100564.73;1707257;82;21698;-77
2022/02/04 03:18:30;;;;;;;38.10;24.02;;;;;;;-2.04;100.00;100557.95;1738546;82;21050;-78
2022/02/04 03:21:01;;;;;;;34.70;20.23;;;;;;;-2.06;100.00;100569.48;1718990;83;20996;-78
2022/02/04 03:23:26;;;;;;;40.90;23.02;;;;;;;-2.07;100.00;100570.34;1704282;83;21038;-78
2022/02/04 03:25:59;;;;;;;38.15;22.05;;;;;;;-2.09;100.00;100570.81;1727412;82;21170;-78
2022/02/04 03:28:28;;;;;;;37.85;22.02;;;;;;;-2.10;100.00;100581.47;1722489;83;21039;-78
2022/02/04 03:30:55;;;;;;;39.18;23.47;;;;;;;-2.11;100.00;100576.37;1724077;82;21062;-78
2022/02/04 03:33:25;;;;;;;35.78;17.77;;;;;;;-2.11;100.00;100577.66;1707900;82;20996;-78
2022/02/04 03:35:51;;;;;;;35.58;21.23;;;;;;;-2.13;100.00;100575.59;1725072;82;21062;-81
2022/02/04 03:38:18;;;;;;;32.75;18.77;;;;;;;-2.16;100.00;100579.48;1728989;82;21799;-83
2022/02/04 03:40:45;;;;;;;38.38;24.15;;;;;;;-2.19;100.00;100571.47;1727390;82;21031;-81
2022/02/04 03:43:12;;;;;;;43.20;24.80;;;;;;;-2.19;100.00;100582.95;1728681;82;21797;-82
2022/02/04 03:45:40;;;;;;;43.60;26.27;;;;;;;-2.19;100.00;100589.33;1728434;83;21038;-83
2022/02/04 03:48:07;;;;;;;40.17;23.92;;;;;;;-2.19;100.00;100582.09;1722711;83;21849;-83
2022/02/04 03:50:34;;;;;;;42.43;24.60;;;;;;;-2.18;100.00;100581.22;1706335;84;22059;-79
2022/02/04 03:53:03;;;;;;;38.98;23.80;;;;;;;-2.17;100.00;100589.28;1735835;82;21042;-79
2022/02/04 03:55:31;;;;;;;40.55;25.65;;;;;;;-2.16;100.00;100589.23;1731535;82;21590;-78
2022/02/04 03:57:58;;;;;;;39.53;22.73;;;;;;;-2.14;100.00;100587.95;1683748;83;22216;-78
2022/02/04 04:00:25;;;;;;;41.77;24.95;;;;;;;-2.15;100.00;100590.92;1685757;83;21072;-80
2022/02/04 04:02:52;;;;;;;41.88;24.70;;;;;;;-2.17;100.00;100587.59;1755979;81;21808;-80
2022/02/04 04:05:19;;;;;;;38.13;21.12;;;;;;;-2.22;100.00;100588.97;1765947;80;21578;-78
2022/02/04 04:07:49;;;;;;;39.45;21.50;;;;;;;-2.29;100.00;100598.91;1766555;80;20995;-80
2022/02/04 04:10:24;;;;;;;35.30;20.10;;;;;;;-2.32;100.00;100591.76;1720902;80;21007;-80
2022/02/04 04:12:50;;;;;;;38.73;23.02;;;;;;;-2.35;100.00;100584.98;1771172;80;21046;-77
2022/02/04 04:15:18;;;;;;;43.52;24.27;;;;;;;-2.36;100.00;100585.86;1774643;80;21177;-78
2022/02/04 04:17:45;;;;;;;44.83;23.80;;;;;;;-2.37;100.00;100591.86;1776024;78;21073;-79
2022/02/04 04:20:17;;;;;;;44.08;23.83;;;;;;;-2.37;100.00;100589.30;1765052;79;21034;-80
2022/02/04 04:22:45;;;;;;;36.13;19.10;;;;;;;-2.37;100.00;100595.69;1756231;80;21030;-80
2022/02/04 04:25:14;;;;;;;41.20;23.75;;;;;;;-2.39;100.00;100593.14;1734586;80;21128;-83
2022/02/04 04:27:42;;;;;;;41.40;24.15;;;;;;;-2.40;100.00;100588.09;1698850;82;21966;-79
2022/02/04 04:30:13;;;;;;;40.88;21.77;;;;;;;-2.41;100.00;100600.43;1700985;82;21095;-77
2022/02/04 04:32:41;;;;;;;43.00;23.80;;;;;;;-2.42;100.00;100598.75;1701379;83;21040;-81
2022/02/04 04:35:13;;;;;;;44.03;21.50;;;;;;;-2.32;100.00;100596.41;1701266;83;21024;-83
2022/02/04 04:37:55;;;;;;;35.23;21.30;;;;;;;-2.27;100.00;100598.86;1701158;82;21060;-81
2022/02/04 04:40:55;;;;;;;40.28;20.82;;;;;;;-2.26;100.00;100592.44;1701558;83;21155;-80
2022/02/04 04:42:59;;;;;;;34.48;19.70;;;;;;;-2.33;100.00;100589.63;1696469;82;21072;-84
2022/02/04 04:45:42;;;;;;;30.60;16.32;;;;;;;-2.38;100.00;100601.66;1701279;83;21080;-82
2022/02/04 05:29:05;;;;;;;39.88;22.80;;;;;;;-2.59;100.00;100653.48;1725614;82;21521;-78
2022/02/04 05:31:28;;;;;;;42.23;23.73;;;;;;;-2.58;100.00;100656.45;1730141;81;21039;-79
2022/02/04 05:33:55;;;;;;;42.67;21.95;;;;;;;-2.58;100.00;100652.62;1682284;84;21968;-78
2022/02/04 05:36:22;;;;;;;39.70;21.62;;;;;;;-2.57;100.00;100657.30;1721119;81;21010;-78
2022/02/04 05:38:52;;;;;;;40.63;21.65;;;;;;;-2.59;100.00;100661.14;1728167;82;22015;-78
2022/02/04 05:41:26;;;;;;;42.10;23.45;;;;;;;-2.59;100.00;100664.14;1693109;84;21045;-79
2022/02/04 05:43:49;;;;;;;40.60;21.23;;;;;;;-2.60;100.00;100658.63;1721993;82;21069;-78
2022/02/04 05:46:20;;;;;;;38.33;22.22;;;;;;;-2.62;100.00;100657.39;1692172;82;21580;-79
2022/02/04 05:48:51;;;;;;;40.48;22.35;;;;;;;-2.62;100.00;100656.53;1725839;82;21060;-78
2022/02/04 05:53:59;;;;;;;42.98;23.02;;;;;;;-2.62;100.00;100668.86;1699959;84;21118;-82
2022/02/04 05:56:32;;;;;;;38.05;21.23;;;;;;;-2.62;100.00;100665.04;1679430;83;21066;-79
2022/02/04 05:59:02;;;;;;;38.65;18.48;;;;;;;-2.62;100.00;100671.83;1740283;82;21542;-78
2022/02/04 06:04:09;;;;;;;25.80;14.60;;;;;;;-2.62;100.00;100675.66;1742310;82;21555;-79
2022/02/04 06:06:57;;;;;;;35.68;18.52;;;;;;;-2.65;100.00;100680.39;1733938;82;21054;-79
2022/02/04 06:09:49;;;;;;;34.50;20.02;;;;;;;-2.64;100.00;100676.97;1712841;83;21034;-79
2022/02/04 06:14:51;;;;;;;39.23;22.22;;;;;;;-2.65;100.00;100679.56;1741748;82;21485;-79
2022/02/04 06:22:44;;;;;;;35.83;19.20;;;;;;;-2.63;100.00;100678.66;1716487;82;20956;-79
2022/02/04 06:25:11;;;;;;;38.15;19.87;;;;;;;-2.64;100.00;100675.70;1745957;82;21140;-80
2022/02/04 06:27:38;;;;;;;46.13;24.20;;;;;;;-2.64;100.00;100669.32;1714273;83;21547;-78
2022/02/04 06:30:06;;;;;;;53.38;24.43;;;;;;;-2.63;100.00;100663.36;1715990;83;21588;-78
2022/02/04 06:32:36;;;;;;;53.98;23.62;;;;;;;-2.63;100.00;100665.91;1752162;80;21055;-79
2022/02/04 06:35:07;;;;;;;41.28;22.62;;;;;;;-2.61;100.00;100669.69;1726581;82;21023;-80
2022/02/04 06:37:35;;;;;;;44.00;23.32;;;;;;;-2.61;100.00;100675.65;1703803;82;21554;-79
2022/02/04 06:40:04;;;;;;;44.55;22.82;;;;;;;-2.59;100.00;100671.78;1725836;83;21137;-80
2022/02/04 06:42:32;;;;;;;36.17;20.17;;;;;;;-2.59;100.00;100670.51;1725228;82;21039;-80
2022/02/04 06:44:59;;;;;;;38.58;21.25;;;;;;;-2.58;100.00;100673.47;1726398;82;21508;-79
2022/02/04 06:47:27;;;;;;;49.27;22.87;;;;;;;-2.57;100.00;100671.33;1725144;83;21035;-79
2022/02/04 06:49:55;;;;;;;40.63;21.97;;;;;;;-2.59;100.00;100672.61;1729121;82;21648;-81
2022/02/04 06:52:22;;;;;;;51.98;25.85;;;;;;;-2.59;100.00;100670.06;1731093;82;21035;-79
2022/02/04 06:54:49;;;;;;;51.48;25.65;;;;;;;-2.60;100.00;100664.55;1724183;82;21516;-79
2022/02/04 06:57:17;;;;;;;45.03;23.60;;;;;;;-2.59;100.00;100668.78;1731885;81;22168;-80
2022/02/04 06:59:46;;;;;;;45.30;23.98;;;;;;;-2.59;100.00;100669.23;1724579;83;21508;-80
2022/02/04 07:02:14;;;;;;;42.40;20.30;;;;;;;-2.59;100.00;100667.51;1732116;82;21168;-79
2022/02/04 07:04:43;;;;;;;38.15;20.27;;;;;;;-2.59;100.00;100673.06;1724535;82;21599;-78
2022/02/04 07:07:12;;;;;;;41.88;24.65;;;;;;;-2.60;100.00;100668.38;1732041;82;21090;-78
2022/02/04 07:10:00;;;;;;;40.03;20.62;;;;;;;-2.60;100.00;100660.73;1724788;82;21043;-79
2022/02/04 07:12:34;;;;;;;45.92;23.92;;;;;;;-2.60;100.00;100669.66;1730885;82;21500;-77
2022/02/04 07:18:02;;;;;;;37.78;20.00;;;;;;;-2.59;100.00;100671.78;1779716;79;21055;-81
2022/02/04 07:20:27;;;;;;;40.15;20.68;;;;;;;-2.60;100.00;100674.75;1727220;82;20980;-79
2022/02/04 07:22:55;;;;;;;48.90;24.82;;;;;;;-2.58;100.00;100669.20;1731609;82;21034;-80
2022/02/04 07:25:22;;;;;;;46.60;23.83;;;;;;;-2.57;100.00;100664.95;1705956;82;20995;-78
2022/02/04 07:27:48;;;;;;;41.08;22.37;;;;;;;-2.55;100.00;100672.11;1710173;83;21129;-78
2022/02/04 07:30:15;;;;;;;41.00;24.55;;;;;;;-2.54;100.00;100669.55;1698793;83;21138;-78
2022/02/04 07:32:57;;;;;;;40.70;21.23;;;;;;;-2.51;100.00;100671.20;1769196;80;21022;-79
2022/02/04 07:35:36;;;;;;;45.12;26.33;;;;;;;-2.51;100.00;100671.61;1764500;80;21063;-79
2022/02/04 07:40:56;;;;;;;41.30;24.63;;;;;;;-2.48;100.00;100676.66;1702822;83;21122;-81
2022/02/04 07:43:27;;;;;;;40.07;21.80;;;;;;;-2.49;100.00;100684.77;1758243;80;21077;-82
2022/02/04 07:45:54;;;;;;;41.15;22.07;;;;;;;-2.52;100.00;100683.54;1770041;79;20979;-82
2022/02/04 07:48:21;;;;;;;45.12;27.90;;;;;;;-2.54;100.00;100683.58;1708298;82;21063;-80
2022/02/04 07:50:49;;;;;;;38.55;20.95;;;;;;;-2.54;100.00;100687.41;1710037;83;21035;-82
2022/02/04 07:53:17;;;;;;;42.38;21.93;;;;;;;-2.55;100.00;100680.63;1722367;82;21159;-80
2022/02/04 07:55:46;;;;;;;41.60;23.35;;;;;;;-2.57;100.00;100681.53;1743229;82;21046;-80
2022/02/04 07:58:14;;;;;;;38.45;20.43;;;;;;;-2.57;100.00;100678.53;1712556;83;20971;-80
2022/02/04 08:00:42;;;;;;;33.67;18.07;;;;;;;-2.57;100.00;100682.80;1708246;83;21010;-81
2022/02/04 08:06:04;;;;;;;36.83;19.85;;;;;;;-2.54;100.00;100688.68;1739565;82;21863;-82
2022/02/04 08:08:40;;;;;;;37.80;22.45;;;;;;;-2.50;100.00;100690.73;1773894;80;22068;-80
2022/02/04 08:16:43;;;;;;;36.70;20.48;;;;;;;-2.46;100.00;100694.06;1744049;82;21526;-81
2022/02/04 08:19:17;;;;;;;38.60;20.40;;;;;;;-2.47;100.00;100693.66;1714474;82;21085;-81
2022/02/04 08:38:11;;;;;;;28.50;16.90;;;;;;;-2.48;100.00;100686.42;1736155;81;21383;-81
2022/02/04 08:48:51;;;;;;;30.43;16.67;;;;;;;-2.53;100.00;100684.41;1754023;81;21067;-81
2022/02/04 08:56:53;;;;;;;31.95;18.32;;;;;;;-2.59;100.00;100686.64;1706742;82;21066;-81
2022/02/04 08:59:19;;;;;;;32.90;19.20;;;;;;;-2.58;100.00;100681.94;1704486;82;21812;-80
2022/02/04 09:01:51;;;;;;;22.55;13.93;;;;;;;-2.55;100.00;100678.07;1728209;81;21053;-84
2022/02/04 09:04:17;;;;;;;26.85;14.93;;;;;;;-2.55;100.00;100672.11;1720139;80;20986;-81
2022/02/04 09:06:50;;;;;;;20.05;11.45;;;;;;;-2.55;100.00;100675.52;1734630;82;21015;-80
2022/02/04 09:09:25;;;;;;;28.20;15.93;;;;;;;-2.52;100.00;100676.34;1733506;81;21023;-79
2022/02/04 09:11:49;;;;;;;26.33;15.20;;;;;;;-2.52;100.00;100669.97;1726697;82;21177;-80
2022/02/04 09:17:24;;;;;;;31.25;17.42;;;;;;;-2.51;100.00;100667.80;1649214;85;21078;-80
2022/02/04 09:20:01;;;;;;;30.48;15.15;;;;;;;-2.48;100.00;100671.56;1660517;84;21027;-81
2022/02/04 09:22:39;;;;;;;31.85;19.55;;;;;;;-2.45;100.00;100674.07;1665025;83;21242;-80
2022/02/04 09:25:00;;;;;;;27.73;16.52;;;;;;;-2.44;100.00;100670.62;1662431;83;21222;-79
2022/02/04 09:27:29;;;;;;;22.07;13.55;;;;;;;-2.42;100.00;100672.71;1634325;85;21037;-80
2022/02/04 09:29:56;;;;;;;27.27;15.35;;;;;;;-2.44;100.00;100668.92;1733466;82;21498;-81
2022/02/04 09:32:24;;;;;;;25.40;14.05;;;;;;;-2.44;100.00;100673.17;1673544;85;21041;-81
2022/02/04 09:34:51;;;;;;;22.93;11.12;;;;;;;-2.44;100.00;100671.89;1669369;85;21134;-81
2022/02/04 09:37:18;;;;;;;30.82;19.37;;;;;;;-2.44;100.00;100665.52;1655869;85;21798;-80
2022/02/04 09:39:52;;;;;;;33.05;18.95;;;;;;;-2.43;100.00;100658.27;1685170;84;21099;-82
2022/02/04 09:42:20;;;;;;;31.25;17.80;;;;;;;-2.41;100.00;100670.57;1688160;83;21070;-83
2022/02/04 09:44:47;;;;;;;35.43;21.37;;;;;;;-2.43;100.00;100664.66;1680562;84;21116;-81
2022/02/04 09:47:34;;;;;;;36.00;22.93;;;;;;;-2.44;100.00;100660.42;1647944;85;21671;-80
2022/02/04 09:49:58;;;;;;;31.27;19.45;;;;;;;-2.46;100.00;100668.56;1709925;81;21168;-80
2022/02/04 10:19:28;;;;;;;36.28;21.62;;;;;;;-2.59;100.00;100670.06;1758469;80;21005;-82
2022/02/04 10:21:58;;;;;;;34.08;21.62;;;;;;;-2.57;100.00;100668.33;1722141;82;21016;-84
2022/02/04 10:24:28;;;;;;;31.20;17.92;;;;;;;-2.57;100.00;100672.60;1725821;80;21061;-81
2022/02/04 10:27:19;;;;;;;24.60;12.93;;;;;;;-2.58;100.00;100676.02;1702934;83;21089;-84
2022/02/04 10:30:04;;;;;;;33.58;19.00;;;;;;;-2.65;100.00;100671.46;1713606;82;21166;-85
2022/02/04 10:32:37;;;;;;;31.10;17.40;;;;;;;-2.75;100.00;100669.95;1688559;83;21116;-85
2022/02/04 10:35:09;;;;;;;31.93;17.80;;;;;;;-2.76;100.00;100670.81;1692932;83;21061;-84
2022/02/04 10:37:43;;;;;;;35.35;19.65;;;;;;;-2.75;100.00;100675.05;1714289;81;21033;-88
2022/02/04 10:40:49;;;;;;;22.95;13.88;;;;;;;-2.73;100.00;100670.77;1715164;80;21002;-83
2022/02/04 10:43:43;;;;;;;30.32;16.97;;;;;;;-2.77;100.00;100666.16;1727501;81;21125;-84
2022/02/04 10:49:06;;;;;;;31.93;16.50;;;;;;;-2.81;100.00;100667.52;1703989;83;21098;-80
2022/02/04 10:51:43;;;;;;;29.95;18.00;;;;;;;-2.81;100.00;100673.89;1684279;83;21112;-81
2022/02/04 10:54:12;;;;;;;35.40;21.12;;;;;;;-2.83;100.00;100667.56;1681631;83;21542;-80
2022/02/04 11:04:12;;;;;;;30.45;18.50;;;;;;;-2.75;100.00;100663.58;1680728;83;20987;-81
2022/02/04 11:07:08;;;;;;;28.10;17.15;;;;;;;-2.76;100.00;100655.10;1683939;83;21619;-81
2022/02/04 11:31:18;;;;;;;36.17;18.73;;;;;;;-2.78;100.00;100650.91;1687578;82;21341;-82
2022/02/04 11:34:24;;;;;;;32.80;19.65;;;;;;;-2.76;100.00;100651.70;1698675;82;36961;-81
2022/02/04 11:43:33;;;;;;;30.32;18.00;;;;;;;-2.74;100.00;100658.89;1699564;81;21892;-84
2022/02/04 11:54:30;;;;;;;36.42;22.05;;;;;;;-2.72;100.00;100667.35;1760617;79;21050;-84
2022/02/04 11:57:03;;;;;;;36.40;20.75;;;;;;;-2.70;100.00;100670.27;1765968;79;20983;-83
2022/02/04 11:59:44;;;;;;;36.93;21.17;;;;;;;-2.66;100.00;100668.95;1771273;79;21103;-86
2022/02/04 12:02:33;;;;;;;37.28;20.88;;;;;;;-2.62;100.00;100668.00;1768332;79;21046;-84
2022/02/04 12:05:20;;;;;;;36.45;21.93;;;;;;;-2.61;100.00;100670.55;1699069;82;22005;-83
2022/02/04 12:08:17;;;;;;;34.55;20.37;;;;;;;-2.58;100.00;100671.74;1718509;82;21034;-83
2022/02/04 12:10:51;;;;;;;36.38;21.35;;;;;;;-2.53;100.00;100669.11;1712189;82;21074;-83
2022/02/04 12:13:20;;;;;;;34.92;20.25;;;;;;;-2.50;100.00;100673.30;1717804;82;21059;-83
2022/02/04 12:16:10;;;;;;;36.98;22.20;;;;;;;-2.50;100.00;100672.02;1733328;81;21137;-84
2022/02/04 12:18:41;;;;;;;30.82;18.92;;;;;;;-2.50;100.00;100667.78;1739918;80;20987;-82
2022/02/04 12:21:16;;;;;;;33.40;18.82;;;;;;;-2.52;100.00;100670.79;1767015;81;21485;-81
2022/02/04 12:23:48;;;;;;;33.45;18.40;;;;;;;-2.54;100.00;100681.45;1725563;82;21069;-83
2022/02/04 12:26:37;;;;;;;33.65;20.55;;;;;;;-2.58;100.00;100673.02;1759386;80;21603;-83
2022/02/04 12:29:13;;;;;;;34.60;21.62;;;;;;;-2.56;100.00;100680.63;1752894;80;21130;-83
2022/02/04 12:31:43;;;;;;;45.60;24.27;;;;;;;-2.54;100.00;100680.17;1767278;80;21019;-82
2022/02/04 12:34:17;;;;;;;30.72;19.20;;;;;;;-2.51;100.00;100680.13;1765083;79;21010;-85
2022/02/04 12:36:50;;;;;;;30.43;19.77;;;;;;;-2.50;100.00;100674.16;1697745;83;21842;-81
2022/02/04 12:39:22;;;;;;;35.80;20.30;;;;;;;-2.50;100.00;100679.26;1750038;81;21039;-80
2022/02/04 12:41:55;;;;;;;31.50;19.52;;;;;;;-2.50;100.00;100680.53;1748441;80;22023;-84
2022/02/04 12:44:24;;;;;;;;;;;;;;;-2.51;100.00;100676.72;1702405;84;21139;-83
2022/02/04 12:47:00;;;;;;;35.55;19.92;;;;;;;-2.52;100.00;100686.54;1733028;82;20187;-82
2022/02/04 12:49:32;;;;;;;30.97;19.25;;;;;;;-2.55;100.00;100681.89;1672330;83;21084;-82
2022/02/04 12:52:25;;;;;;;34.70;20.52;;;;;;;-2.56;100.00;100681.91;1766162;80;21082;-83
2022/02/04 12:54:57;;;;;;;31.87;19.98;;;;;;;-2.55;100.00;100678.07;1683549;83;21549;-82
2022/02/04 12:57:36;;;;;;;30.95;20.57;;;;;;;-2.55;100.00;100684.45;1696347;83;21849;-81
2022/02/04 13:11:12;;;;;;;35.13;19.12;;;;;;;-2.55;100.00;100692.09;1737168;80;21992;-83
2022/02/04 13:13:54;;;;;;;33.63;19.85;;;;;;;-2.55;100.00;100697.20;1711999;80;21137;-83
2022/02/04 13:16:31;;;;;;;31.93;18.37;;;;;;;-2.54;100.00;100696.33;1727548;82;21729;-80
2022/02/04 13:19:02;;;;;;;31.90;19.75;;;;;;;-2.54;100.00;100700.16;1744641;80;21066;-82
2022/02/04 13:21:32;;;;;;;29.23;17.55;;;;;;;-2.55;100.00;100701.02;1762435;80;21049;-81
2022/02/04 13:24:07;;;;;;;33.65;17.25;;;;;;;-2.57;100.00;100699.38;1770304;80;21216;-80
2022/02/04 13:26:35;;;;;;;30.40;19.15;;;;;;;-2.57;100.00;100707.85;1746727;79;21587;-81
2022/02/04 13:29:06;;;;;;;24.82;14.23;;;;;;;-2.55;100.00;100721.84;1775084;79;21544;-82
2022/02/04 13:31:36;;;;;;;24.77;14.43;;;;;;;-2.56;100.00;100715.91;1766813;79;21038;-85
2022/02/04 13:34:11;;;;;;;25.48;15.58;;;;;;;-2.56;100.00;100717.19;1744512;80;21500;-82
2022/02/04 13:44:47;;;;;;;26.15;17.48;;;;;;;-2.62;100.00;100722.41;1698942;82;21035;-82
2022/02/04 13:47:31;;;;;;;17.80;11.97;;;;;;;-2.62;100.00;100726.65;1696572;83;21071;-82
2022/02/04 13:50:05;;;;;;;26.02;15.13;;;;;;;-2.64;100.00;100731.79;1763508;80;21176;-80
2022/02/04 13:58:26;;;;;;;24.40;15.18;;;;;;;-2.75;100.00;100731.13;1743238;80;21015;-82
2022/02/04 14:03:23;;;;;;;23.60;15.48;;;;;;;-2.79;100.00;100730.80;1745013;81;21141;-83
2022/02/04 14:08:49;;;;;;;22.25;14.98;;;;;;;-2.81;100.00;100727.42;1601541;87;21115;-82
2022/02/04 14:11:15;;;;;;;22.67;13.88;;;;;;;-2.82;100.00;100729.56;1693105;83;21549;-83
2022/02/04 14:13:41;;;;;;;21.95;14.03;;;;;;;-2.85;100.00;100729.19;1767974;80;21129;-82
2022/02/04 14:16:11;;;;;;;26.52;16.10;;;;;;;-2.84;100.00;100730.05;1736033;81;21140;-82
2022/02/04 14:18:41;;;;;;;28.42;15.23;;;;;;;-2.86;100.00;100724.53;1738316;79;21074;-81
2022/02/04 14:21:09;;;;;;;31.45;16.35;;;;;;;-2.85;100.00;100730.46;1786849;79;21548;-83
2022/02/04 14:23:37;;;;;;;30.20;18.73;;;;;;;-2.85;100.00;100735.56;1770033;80;20959;-81
2022/02/04 14:26:10;;;;;;;26.27;16.60;;;;;;;-2.86;100.00;100734.73;1699938;83;21000;-83
2022/02/04 14:31:17;;;;;;;27.45;17.55;;;;;;;-2.87;100.00;100738.14;1757365;80;21567;-83
2022/02/04 14:58:39;;;;;;;25.05;15.05;;;;;;;-2.97;100.00;100771.02;1725880;81;21491;-80
2022/02/04 15:01:31;;;;;;;26.12;16.60;;;;;;;-2.98;100.00;100776.97;1713920;81;21598;-80
2022/02/04 15:03:36;;;;;;;26.73;16.67;;;;;;;-2.98;100.00;100776.97;1688775;82;22061;-81
2022/02/04 15:06:21;;;;;;;21.33;14.43;;;;;;;-2.98;100.00;100780.80;1693654;83;21603;-85
2022/02/04 15:08:44;;;;;;;21.77;14.67;;;;;;;-2.98;100.00;100773.15;1687667;83;21174;-81
2022/02/04 15:11:18;;;;;;;25.52;16.85;;;;;;;-2.98;100.00;100775.70;1696384;82;20989;-81
2022/02/04 15:13:42;;;;;;;24.20;13.72;;;;;;;-2.98;100.00;100791.44;1708303;82;21530;-81
2022/02/04 15:16:12;;;;;;;22.17;14.63;;;;;;;-3.01;100.00;100786.78;1707798;82;21101;-81
2022/02/04 15:18:42;;;;;;;24.45;15.85;;;;;;;-3.01;100.00;100792.33;1701347;83;21045;-82
2022/02/04 15:21:16;;;;;;;23.27;14.60;;;;;;;-3.02;100.00;100791.91;1701163;83;21212;-81
2022/02/04 15:23:47;;;;;;;25.35;16.02;;;;;;;-3.03;100.00;100791.05;1720065;81;21021;-82
2022/02/04 15:26:17;;;;;;;26.00;15.63;;;;;;;-3.05;100.00;100791.54;1711076;81;21685;-81
2022/02/04 15:28:49;;;;;;;22.95;15.28;;;;;;;-3.07;100.00;100794.53;1698297;81;21509;-81
2022/02/04 15:31:24;;;;;;;25.97;16.07;;;;;;;-3.08;100.00;100802.18;1713638;82;22022;-82
2022/02/04 15:33:47;;;;;;;21.75;12.95;;;;;;;-3.08;100.00;100806.00;1703584;82;21239;-81
2022/02/04 15:36:23;;;;;;;23.77;14.93;;;;;;;-3.08;100.00;100825.11;1681351;82;20957;-82
2022/02/04 15:38:43;;;;;;;24.07;15.30;;;;;;;-3.09;100.00;100819.63;1716836;82;21115;-82
2022/02/04 15:41:15;;;;;;;23.50;15.63;;;;;;;-3.11;100.00;100825.17;1716290;81;21023;-81
2022/02/04 15:43:42;;;;;;;22.15;14.10;;;;;;;-3.12;100.00;100821.77;1707686;82;21143;-81
2022/02/04 15:46:39;;;;;;;25.68;15.43;;;;;;;-3.12;100.00;100828.59;1726393;81;21474;-81
2022/02/04 15:49:18;;;;;;;21.62;13.08;;;;;;;-3.12;100.00;100830.69;1705293;82;21145;-81
2022/02/04 16:02:35;;;;;;;21.12;12.45;;;;;;;-3.00;100.00;100844.95;1704761;82;21047;-81
2022/02/04 16:04:58;;;;;;;26.55;16.75;;;;;;;-3.00;100.00;100853.87;1619152;86;21991;-81
2022/02/04 16:07:26;;;;;;;24.37;15.25;;;;;;;-3.02;100.00;100854.34;1672225;84;21078;-82
2022/02/04 16:10:04;;;;;;;26.50;17.12;;;;;;;-3.07;100.00;100852.28;1670837;84;21086;-80
2022/02/04 16:12:38;;;;;;;22.82;14.15;;;;;;;-3.10;100.00;100849.80;1649411;85;21810;-81
2022/02/04 16:15:18;;;;;;;23.47;14.73;;;;;;;-3.13;100.00;100853.65;1665531;85;21547;-81
2022/02/04 16:17:41;;;;;;;27.02;15.23;;;;;;;-3.15;100.00;100851.55;1660879;83;21065;-83
2022/02/04 16:20:24;;;;;;;26.90;15.72;;;;;;;-3.15;100.00;100861.73;1673114;85;21535;-81
2022/02/04 16:23:05;;;;;;;23.10;15.30;;;;;;;-3.12;100.00;100868.08;1673125;85;21016;-82
2022/02/04 16:30:45;;;;;;;20.68;12.70;;;;;;;-3.18;100.00;100877.50;1661920;85;21033;-81
2022/02/04 16:33:12;;;;;;;23.40;15.18;;;;;;;-3.21;100.00;100885.17;1676445;84;21969;-81
2022/02/04 16:35:41;;;;;;;24.55;15.70;;;;;;;-3.24;100.00;100885.20;1686645;83;21614;-86
2022/02/04 16:38:16;;;;;;;23.73;14.18;;;;;;;-3.24;100.00;100883.92;1746266;80;21149;-82
2022/02/04 16:40:45;;;;;;;25.80;13.62;;;;;;;-3.23;100.00;100882.23;1669616;84;21450;-82
2022/02/04 16:43:10;;;;;;;25.57;15.38;;;;;;;-3.26;100.00;100886.95;1671662;83;21622;-82
2022/02/04 16:45:37;;;;;;;17.60;11.95;;;;;;;-3.27;100.00;100886.53;1706102;82;21051;-82
2022/02/04 16:48:05;;;;;;;24.52;14.50;;;;;;;-3.30;100.00;100888.28;1673737;85;21562;-82
2022/02/04 16:50:33;;;;;;;25.60;16.37;;;;;;;-3.31;100.00;100882.77;1672629;84;21147;-83
2022/02/04 16:53:00;;;;;;;20.43;13.40;;;;;;;-3.33;100.00;100875.98;1660923;84;21106;-82
2022/02/04 16:55:27;;;;;;;22.50;14.68;;;;;;;-3.34;100.00;100883.66;1661985;84;21075;-80
2022/02/04 16:57:54;;;;;;;21.82;14.58;;;;;;;-3.34;100.00;100883.66;1674023;84;22471;-81
2022/02/04 17:00:24;;;;;;;21.97;14.43;;;;;;;-3.35;100.00;100887.06;1667986;84;21113;-80
2022/02/04 17:02:56;;;;;;;24.43;16.17;;;;;;;-3.36;100.00;100890.03;1658543;85;21453;-80
2022/02/04 17:05:33;;;;;;;22.48;12.50;;;;;;;-3.34;100.00;100894.67;1682950;83;21054;-80